createdAt,value
2022-10-04T00:00:11.518Z,101860.81
2022-10-04T00:02:46.806Z,101842.28
2022-10-04T00:05:19.019Z,101846.59
2022-10-04T00:07:52.447Z,101846.56
2022-10-04T00:10:23.287Z,101840.38
2022-10-04T00:12:54.231Z,101839.44
2022-10-04T00:15:26.660Z,101834.13
2022-10-04T00:18:08.922Z,101830.53
2022-10-04T00:21:03.785Z,101835.00
2022-10-04T00:23:44.369Z,101825.28
2022-10-04T00:26:36.505Z,101829.69
2022-10-04T00:29:30.739Z,101827.00
2022-10-04T00:32:30.747Z,101825.28
2022-10-04T00:35:00.906Z,101826.94
2022-10-04T00:37:49.059Z,101829.69
2022-10-04T00:40:21.430Z,101830.59
2022-10-04T00:42:58.723Z,101827.88
2022-10-04T00:45:35.037Z,101820.72
2022-10-04T00:48:21.007Z,101816.28
2022-10-04T00:50:55.343Z,101805.72
2022-10-04T00:53:49.027Z,101809.19
2022-10-04T00:56:25.103Z,101802.28
2022-10-04T00:59:30.447Z,101807.78
2022-10-04T01:02:03.525Z,101813.00
2022-10-04T01:04:43.388Z,101812.13
2022-10-04T01:07:17.604Z,101805.88
2022-10-04T01:09:51.226Z,101798.81
2022-10-04T01:12:32.965Z,101783.81
2022-10-04T01:15:07.448Z,101783.78
2022-10-04T01:17:35.463Z,101783.75
2022-10-04T01:20:03.808Z,101784.59
2022-10-04T01:22:39.039Z,101799.72
2022-10-04T01:25:07.413Z,101789.13
2022-10-04T01:27:38.808Z,101772.25
2022-10-04T01:30:10.226Z,101781.16
2022-10-04T01:32:40.171Z,101770.53
2022-10-04T01:35:10.655Z,101769.59
2022-10-04T01:37:40.623Z,101761.63
2022-10-04T01:40:10.430Z,101773.13
2022-10-04T01:42:44.651Z,101784.59
2022-10-04T01:45:20.559Z,101787.13
2022-10-04T01:47:54.145Z,101782.59
2022-10-04T01:50:28.715Z,101787.13
2022-10-04T01:53:07.774Z,101780.88
2022-10-04T01:55:38.343Z,101774.75
2022-10-04T01:58:12.318Z,101781.81
2022-10-04T02:00:45.002Z,101780.84
2022-10-04T02:03:19.048Z,101780.03
2022-10-04T02:05:52.732Z,101777.38
2022-10-04T02:08:30.629Z,101771.16
2022-10-04T02:11:00.628Z,101764.72
2022-10-04T02:13:35.306Z,101756.00
2022-10-04T02:16:04.140Z,101754.22
2022-10-04T02:18:34.282Z,101743.63
2022-10-04T02:21:03.773Z,101750.66
2022-10-04T02:23:34.250Z,101756.81
2022-10-04T02:26:05.904Z,101754.41
2022-10-04T02:28:34.778Z,101748.09
2022-10-04T02:31:20.806Z,101746.41
2022-10-04T02:33:51.766Z,101742.81
2022-10-04T02:36:24.939Z,101736.59
2022-10-04T02:39:00.375Z,101737.44
2022-10-04T02:41:33.804Z,101727.53
2022-10-04T02:44:06.232Z,101715.25
2022-10-04T02:46:38.009Z,101722.47
2022-10-04T02:49:11.786Z,101711.78
2022-10-04T02:51:45.316Z,101715.31
2022-10-04T02:54:30.086Z,101717.97
2022-10-04T02:56:59.482Z,101726.06
2022-10-04T02:59:27.565Z,101738.47
2022-10-04T03:01:57.636Z,101723.50
2022-10-04T03:04:28.544Z,101721.78
2022-10-04T03:06:58.658Z,101719.06
2022-10-04T03:09:30.083Z,101723.47
2022-10-04T03:11:59.059Z,101714.53
2022-10-04T03:14:28.848Z,101707.34
2022-10-04T03:17:01.633Z,101709.94
2022-10-04T03:19:32.379Z,101712.59
2022-10-04T03:22:03.353Z,101710.75
2022-10-04T03:24:37.538Z,101710.84
2022-10-04T03:27:09.306Z,101710.78
2022-10-04T03:29:42.784Z,101706.25
2022-10-04T03:32:15.005Z,101700.19
2022-10-04T03:34:49.455Z,101697.53
2022-10-04T03:37:21.538Z,101698.50
2022-10-04T03:39:54.048Z,101700.19
2022-10-04T03:42:24.345Z,101697.59
2022-10-04T03:44:56.283Z,101696.72
2022-10-04T03:47:28.886Z,101687.81
2022-10-04T03:49:59.473Z,101683.34
2022-10-04T03:52:32.154Z,101685.09
2022-10-04T03:55:06.724Z,101686.72
2022-10-04T03:57:37.974Z,101690.38
2022-10-04T04:00:07.725Z,101693.03
2022-10-04T04:02:46.149Z,101687.88
2022-10-04T04:05:20.129Z,101688.56
2022-10-04T04:07:54.213Z,101683.47
2022-10-04T04:10:27.300Z,101686.13
2022-10-04T04:12:58.283Z,101684.44
2022-10-04T04:15:31.137Z,101684.53
2022-10-04T04:18:03.512Z,101684.53
2022-10-04T04:20:33.876Z,101689.97
2022-10-04T04:23:05.213Z,101688.19
2022-10-04T04:25:41.989Z,101697.81
2022-10-04T04:28:25.548Z,101694.31
2022-10-04T04:30:57.734Z,101692.59
2022-10-04T04:33:31.142Z,101689.91
2022-10-04T04:36:06.442Z,101689.84
2022-10-04T04:38:35.598Z,101687.28
2022-10-04T04:41:11.646Z,101684.59
2022-10-04T04:43:44.654Z,101677.56
2022-10-04T04:46:28.475Z,101669.50
2022-10-04T04:49:01.848Z,101673.91
2022-10-04T04:51:31.536Z,101673.25
2022-10-04T04:54:03.382Z,101675.84
2022-10-04T04:56:32.953Z,101675.91
2022-10-04T04:59:04.377Z,101675.91
2022-10-04T05:01:36.386Z,101677.63
2022-10-04T05:04:07.420Z,101681.22
2022-10-04T05:06:37.150Z,101685.66
2022-10-04T05:09:06.442Z,101692.75
2022-10-04T05:11:38.619Z,101694.38
2022-10-04T05:14:10.120Z,101691.84
2022-10-04T05:16:43.574Z,101689.19
2022-10-04T05:19:16.792Z,101690.06
2022-10-04T05:21:47.671Z,101692.72
2022-10-04T05:24:22.593Z,101689.13
2022-10-04T05:26:55.271Z,101692.69
2022-10-04T05:29:27.895Z,101695.31
2022-10-04T05:32:07.045Z,101687.41
2022-10-04T05:34:40.034Z,101684.69
2022-10-04T05:37:22.318Z,101685.56
2022-10-04T05:40:00.280Z,101692.72
2022-10-04T05:42:37.754Z,101688.31
2022-10-04T05:45:15.758Z,101685.53
2022-10-04T05:47:44.837Z,101684.69
2022-10-04T05:50:18.704Z,101682.84
2022-10-04T05:52:50.187Z,101680.09
2022-10-04T05:55:27.118Z,101675.56
2022-10-04T05:58:18.141Z,101675.63
2022-10-04T06:01:03.082Z,101689.84
2022-10-04T06:03:44.482Z,101682.66
2022-10-04T06:06:20.071Z,101679.91
2022-10-04T06:09:09.404Z,101685.28
2022-10-04T06:11:49.693Z,101683.63
2022-10-04T06:14:39.109Z,101694.22
2022-10-04T06:17:22.228Z,101695.03
2022-10-04T06:20:09.727Z,101684.31
2022-10-04T06:22:44.698Z,101698.38
2022-10-04T06:25:26.376Z,101699.97
2022-10-04T06:28:03.342Z,101699.00
2022-10-04T06:30:43.491Z,101698.06
2022-10-04T06:33:32.767Z,101697.97
2022-10-04T06:36:16.132Z,101699.66
2022-10-04T06:39:04.038Z,101705.84
2022-10-04T06:41:54.740Z,101702.22
2022-10-04T06:44:40.067Z,101696.03
2022-10-04T06:47:26.075Z,101707.34
2022-10-04T06:49:57.958Z,101705.44
2022-10-04T06:52:34.639Z,101703.53
2022-10-04T06:55:21.478Z,101703.25
2022-10-04T06:58:10.302Z,101705.69
2022-10-04T07:00:45.995Z,101695.00
2022-10-04T07:03:21.662Z,101704.63
2022-10-04T07:05:55.273Z,101705.09
2022-10-04T07:08:34.121Z,101701.44
2022-10-04T07:11:12.196Z,101696.78
2022-10-04T07:13:46.701Z,101694.84
2022-10-04T07:16:30.331Z,101689.34
2022-10-04T07:19:09.643Z,101683.91
2022-10-04T07:21:45.403Z,101683.75
2022-10-04T07:24:22.445Z,101678.31
2022-10-04T07:26:53.579Z,101683.50
2022-10-04T07:29:24.736Z,101678.69
2022-10-04T07:32:05.629Z,101681.31
2022-10-04T07:34:41.989Z,101680.38
2022-10-04T07:37:12.797Z,101688.19
2022-10-04T07:39:47.396Z,101687.06
2022-10-04T07:42:26.873Z,101689.53
2022-10-04T07:45:10.959Z,101692.53
2022-10-04T07:47:39.374Z,101696.88
2022-10-04T07:50:29.419Z,101702.13
2022-10-04T07:53:05.898Z,101697.63
2022-10-04T07:55:46.845Z,101701.28
2022-10-04T07:58:29.407Z,101698.84
2022-10-04T08:01:01.787Z,101698.13
2022-10-04T08:03:59.618Z,101703.56
2022-10-04T08:06:37.556Z,101705.28
2022-10-04T08:09:24.889Z,101701.97
2022-10-04T08:12:03.299Z,101702.03
2022-10-04T08:14:51.225Z,101693.25
2022-10-04T08:17:29.774Z,101692.47
2022-10-04T08:20:08.629Z,101701.19
2022-10-04T08:22:52.045Z,101702.72
2022-10-04T08:25:25.250Z,101699.72
2022-10-04T08:28:20.859Z,101696.88
2022-10-04T08:31:05.112Z,101687.63
2022-10-04T08:33:52.234Z,101678.72
2022-10-04T08:36:34.139Z,101674.75
2022-10-04T08:39:08.028Z,101671.84
2022-10-04T08:42:07.242Z,101672.84
2022-10-04T08:45:12.385Z,101672.97
2022-10-04T08:48:24.837Z,101675.56
2022-10-04T08:51:52.302Z,101675.78
2022-10-04T08:54:57.068Z,101687.09
2022-10-04T08:57:51.693Z,101687.81
2022-10-04T09:00:24.272Z,101688.78
2022-10-04T09:03:39.836Z,101693.03
2022-10-04T09:06:33.415Z,101674.25
2022-10-04T09:09:40.696Z,101684.94
2022-10-04T09:12:29.947Z,101676.81
2022-10-04T09:15:27.089Z,101686.56
2022-10-04T09:18:02.819Z,101679.28
2022-10-04T09:20:49.524Z,101684.56
2022-10-04T09:23:42.789Z,101690.91
2022-10-04T09:26:22.160Z,101687.25
2022-10-04T09:29:41.728Z,101686.19
2022-10-04T09:32:29.177Z,101686.91
2022-10-04T09:35:17.583Z,101678.03
2022-10-04T09:38:06.708Z,101671.88
2022-10-04T09:41:15.690Z,101674.25
2022-10-04T09:44:24.866Z,101668.56
2022-10-04T09:47:06.239Z,101670.28
2022-10-04T09:50:13.821Z,101669.13
2022-10-04T09:52:49.574Z,101665.16
2022-10-04T09:55:36.504Z,101658.50
2022-10-04T09:58:29.380Z,101656.53
2022-10-04T10:01:05.129Z,101648.66
2022-10-04T10:03:52.943Z,101654.16
2022-10-04T10:06:36.855Z,101661.44
2022-10-04T10:09:43.491Z,101654.53
2022-10-04T10:12:45.484Z,101654.47
2022-10-04T10:15:31.427Z,101643.38
2022-10-04T10:18:10.068Z,101647.22
2022-10-04T10:21:06.313Z,101648.34
2022-10-04T10:23:58.464Z,101654.91
2022-10-04T10:26:44.388Z,101656.03
2022-10-04T10:29:41.343Z,101651.44
2022-10-04T10:32:37.191Z,101659.03
2022-10-04T10:35:24.767Z,101649.19
2022-10-04T10:38:09.727Z,101644.81
2022-10-04T10:40:52.893Z,101647.75
2022-10-04T10:43:36.080Z,101640.31
2022-10-04T10:46:16.860Z,101641.97
2022-10-04T10:49:03.866Z,101635.22
2022-10-04T10:52:02.411Z,101622.53
2022-10-04T10:55:06.809Z,101619.91
2022-10-04T10:58:04.375Z,101618.75
2022-10-04T11:00:46.132Z,101620.34
2022-10-04T11:03:32.526Z,101605.72
2022-10-04T11:06:15.477Z,101613.56
2022-10-04T11:09:12.194Z,101593.16
2022-10-04T11:12:14.366Z,101605.41
2022-10-04T11:15:07.264Z,101596.22
2022-10-04T11:18:15.237Z,101596.16
2022-10-04T11:21:03.510Z,101601.59
2022-10-04T11:24:06.505Z,101601.47
2022-10-04T11:27:01.572Z,101592.81
2022-10-04T11:29:48.852Z,101591.72
2022-10-04T11:33:06.060Z,101594.03
2022-10-04T11:36:12.639Z,101590.19
2022-10-04T11:38:56.144Z,101582.78
2022-10-04T11:41:35.404Z,101584.53
2022-10-04T11:44:22.190Z,101574.81
2022-10-04T11:46:57.836Z,101570.28
2022-10-04T11:49:56.607Z,101579.31
2022-10-04T11:52:57.636Z,101576.56
2022-10-04T11:56:04.519Z,101577.31
2022-10-04T11:58:46.394Z,101569.28
2022-10-04T12:01:46.850Z,101563.00
2022-10-04T12:04:59.341Z,101562.94
2022-10-04T12:07:39.892Z,101563.13
2022-10-04T12:10:22.942Z,101559.19
2022-10-04T12:13:24.407Z,101547.38
2022-10-04T12:16:11.765Z,101548.22
2022-10-04T12:19:15.593Z,101545.03
2022-10-04T12:21:59.348Z,101536.16
2022-10-04T12:24:53.793Z,101528.91
2022-10-04T12:27:52.342Z,101521.16
2022-10-04T12:30:28.627Z,101512.16
2022-10-04T12:33:12.942Z,101518.91
2022-10-04T12:36:04.259Z,101513.19
2022-10-04T12:39:02.654Z,101507.66
2022-10-04T12:41:38.089Z,101508.88
2022-10-04T12:44:23.467Z,101513.06
2022-10-04T12:47:01.014Z,101503.06
2022-10-04T12:49:45.318Z,101503.06
2022-10-04T12:52:21.014Z,101489.59
2022-10-04T12:54:58.214Z,101487.91
2022-10-04T12:57:47.457Z,101483.72
2022-10-04T13:00:20.489Z,101477.13
2022-10-04T13:03:09.811Z,101467.53
2022-10-04T13:09:03.453Z,101465.06
2022-10-04T13:11:52.584Z,101465.06
2022-10-04T13:14:41.645Z,101468.41
2022-10-04T13:17:35.241Z,101461.41
2022-10-04T13:20:28.423Z,101457.88
2022-10-04T13:23:08.351Z,101458.00
2022-10-04T13:26:15.423Z,101457.94
2022-10-04T13:28:55.862Z,101450.59
2022-10-04T13:31:33.466Z,101450.69
2022-10-04T13:34:11.896Z,101460.19
2022-10-04T13:36:56.046Z,101451.53
2022-10-04T13:39:44.883Z,101449.06
2022-10-04T13:42:39.601Z,101450.69
2022-10-04T13:45:26.063Z,101453.50
2022-10-04T13:48:21.985Z,101450.47
2022-10-04T13:51:15.372Z,101457.59
2022-10-04T13:54:09.360Z,101446.84
2022-10-04T13:56:57.787Z,101436.81
2022-10-04T13:59:42.358Z,101427.25
2022-10-04T14:02:32.141Z,101439.97
2022-10-04T14:05:47.754Z,101432.50
2022-10-04T14:08:33.324Z,101436.25
2022-10-04T14:11:33.288Z,101421.13
2022-10-04T14:14:23.870Z,101421.03
2022-10-04T14:17:22.921Z,101414.78
2022-10-04T14:20:24.610Z,101415.56
2022-10-04T14:23:23.640Z,101414.41
2022-10-04T14:26:11.512Z,101414.25
2022-10-04T14:29:15.962Z,101396.97
2022-10-04T14:32:23.039Z,101387.88
2022-10-04T14:35:02.301Z,101390.63
2022-10-04T14:37:54.989Z,101386.19
2022-10-04T14:40:47.873Z,101390.00
2022-10-04T14:43:46.583Z,101398.16
2022-10-04T14:46:22.696Z,101392.97
2022-10-04T14:49:05.508Z,101381.41
2022-10-04T14:52:06.617Z,101374.03
2022-10-04T14:54:46.391Z,101374.03
2022-10-04T14:57:22.885Z,101375.78
2022-10-04T15:00:21.859Z,101382.88
2022-10-04T15:03:14.878Z,101390.94
2022-10-04T15:06:00.193Z,101389.09
2022-10-04T15:08:58.267Z,101393.47
2022-10-04T15:23:48.710Z,101388.53
2022-10-04T15:29:24.162Z,101388.13
2022-10-04T15:32:05.122Z,101383.66
2022-10-04T15:34:42.248Z,101386.38
2022-10-04T15:37:25.599Z,101386.13
2022-10-04T15:40:10.487Z,101375.72
2022-10-04T15:42:41.246Z,101363.91
2022-10-04T15:45:36.434Z,101351.78
2022-10-04T15:48:25.120Z,101348.25
2022-10-04T15:51:12.016Z,101340.25
2022-10-04T15:53:59.644Z,101336.06
2022-10-04T15:56:37.818Z,101354.84
2022-10-04T15:59:26.287Z,101354.03
2022-10-04T16:02:25.549Z,101364.00
2022-10-04T16:05:05.156Z,101360.03
2022-10-04T16:07:55.792Z,101364.69
2022-10-04T16:10:32.736Z,101372.28
2022-10-04T16:13:34.248Z,101374.13
2022-10-04T16:16:41.367Z,101366.78
2022-10-04T16:19:28.744Z,101360.25
2022-10-04T16:22:16.141Z,101365.25
2022-10-04T16:24:51.355Z,101371.50
2022-10-04T16:27:43.203Z,101371.63
2022-10-04T16:30:27.203Z,101364.19
2022-10-04T16:33:32.292Z,101360.25
2022-10-04T16:36:14.821Z,101364.72
2022-10-04T16:39:02.003Z,101358.84
2022-10-04T16:41:40.076Z,101347.47
2022-10-04T16:44:28.895Z,101362.06
2022-10-04T16:47:03.544Z,101360.63
2022-10-04T16:49:41.348Z,101367.19
2022-10-04T16:52:35.668Z,101360.16
2022-10-04T16:55:47.164Z,101361.56
2022-10-04T16:58:57.304Z,101365.31
2022-10-04T17:02:07.927Z,101373.59
2022-10-04T17:05:16.473Z,101363.22
2022-10-04T17:08:04.728Z,101359.97
2022-10-04T17:10:41.215Z,101354.78
2022-10-04T17:13:23.274Z,101362.94
2022-10-04T17:16:02.694Z,101356.94
2022-10-04T17:18:44.805Z,101359.78
2022-10-04T17:21:29.278Z,101363.28
2022-10-04T17:24:20.059Z,101363.47
2022-10-04T17:27:07.413Z,101370.09
2022-10-04T17:29:49.384Z,101366.69
2022-10-04T17:32:27.404Z,101366.00
2022-10-04T17:35:13.726Z,101365.13
2022-10-04T17:37:51.243Z,101360.84
2022-10-04T17:40:33.121Z,101366.00
2022-10-04T17:43:08.064Z,101363.53
2022-10-04T17:46:09.946Z,101366.91
2022-10-04T17:49:05.031Z,101358.78
2022-10-04T17:51:59.805Z,101360.84
2022-10-04T17:54:49.986Z,101354.81
2022-10-04T17:57:27.066Z,101364.97
2022-10-04T18:00:01.111Z,101361.91
2022-10-04T18:02:46.220Z,101359.44
2022-10-04T18:05:19.578Z,101361.34
2022-10-04T18:07:55.819Z,101360.78
2022-10-04T18:10:29.948Z,101350.25
2022-10-04T18:13:04.683Z,101351.38
2022-10-04T18:15:37.465Z,101352.13
2022-10-04T18:18:16.921Z,101349.63
2022-10-04T18:21:05.282Z,101346.13
2022-10-04T18:23:39.854Z,101348.13
2022-10-04T18:26:17.640Z,101341.69
2022-10-04T18:28:49.203Z,101349.78
2022-10-04T18:31:25.462Z,101351.47
2022-10-04T18:33:54.310Z,101355.03
2022-10-04T18:36:27.460Z,101354.78
2022-10-04T18:39:20.771Z,101350.59
2022-10-04T18:41:59.275Z,101355.13
2022-10-04T18:44:31.283Z,101354.22
2022-10-04T18:47:02.435Z,101367.53
2022-10-04T18:49:33.900Z,101368.50
2022-10-04T18:52:14.374Z,101374.78
2022-10-04T18:54:50.526Z,101373.97
2022-10-04T18:57:32.423Z,101368.63
2022-10-04T19:00:28.119Z,101367.78
2022-10-04T19:03:10.035Z,101363.44
2022-10-04T19:05:44.447Z,101360.00
2022-10-04T19:08:30.018Z,101364.63
2022-10-04T19:11:04.149Z,101367.28
2022-10-04T19:13:43.146Z,101364.75
2022-10-04T19:16:35.177Z,101363.06
2022-10-04T19:19:28.346Z,101363.00
2022-10-04T19:22:02.787Z,101351.66
2022-10-04T19:24:57.837Z,101353.44
2022-10-04T19:27:31.165Z,101348.28
2022-10-04T19:30:15.339Z,101357.09
2022-10-04T19:33:10.656Z,101355.44
2022-10-04T19:36:00.357Z,101360.88
2022-10-04T20:06:11.422Z,101379.19
2022-10-04T20:08:59.396Z,101366.81
2022-10-04T20:11:48.396Z,101358.81
2022-10-04T20:14:47.039Z,101367.81
2022-10-04T20:17:34.058Z,101366.97
2022-10-04T20:20:03.009Z,101359.97
2022-10-04T20:23:00.537Z,101358.16
2022-10-04T20:26:06.276Z,101362.63
2022-10-04T20:28:43.367Z,101359.19
2022-10-04T20:31:13.361Z,101365.50
2022-10-04T20:33:56.692Z,101358.47
2022-10-04T20:36:50.920Z,101363.72
2022-10-04T20:40:00.905Z,101361.09
2022-10-04T20:42:40.653Z,101357.47
2022-10-04T20:45:23.347Z,101351.19
2022-10-04T20:47:54.774Z,101356.47
2022-10-04T20:50:43.170Z,101348.78
2022-10-04T20:53:18.599Z,101347.78
2022-10-04T20:55:46.909Z,101346.94
2022-10-04T20:58:32.270Z,101353.13
2022-10-04T21:01:13.958Z,101358.56
2022-10-04T21:03:41.959Z,101363.19
2022-10-04T21:06:11.935Z,101380.22
2022-10-04T21:08:40.888Z,101380.19
2022-10-04T21:11:21.376Z,101380.25
2022-10-04T21:13:57.009Z,101378.50
2022-10-04T21:16:43.209Z,101381.25
2022-10-04T21:19:32.125Z,101386.56
2022-10-04T21:22:01.256Z,101376.03
2022-10-04T21:24:35.951Z,101373.38
2022-10-04T21:27:05.269Z,101369.16
2022-10-04T21:29:34.543Z,101369.09
2022-10-04T21:32:03.380Z,101350.53
2022-10-04T21:34:51.901Z,101347.09
2022-10-04T21:37:19.375Z,101324.91
2022-10-04T21:39:47.496Z,101315.19
2022-10-04T21:42:16.867Z,101315.97
2022-10-04T21:44:46.321Z,101321.09
2022-10-04T21:47:15.662Z,101324.50
2022-10-04T21:49:43.718Z,101321.88
2022-10-04T21:52:11.940Z,101327.13
2022-10-04T21:54:43.444Z,101318.22
2022-10-04T21:57:11.611Z,101321.56
2022-10-04T21:59:39.550Z,101313.59
2022-10-04T22:02:09.313Z,101302.09
2022-10-04T22:04:38.114Z,101310.94
2022-10-04T22:07:07.874Z,101322.47
2022-10-04T22:09:36.042Z,101325.91
2022-10-04T22:12:04.124Z,101317.03
2022-10-04T22:14:32.449Z,101324.97
2022-10-04T22:17:02.603Z,101324.97
2022-10-04T22:19:32.200Z,101328.56
2022-10-04T22:22:00.201Z,101336.50
2022-10-04T22:24:28.560Z,101337.34
2022-10-04T22:26:58.372Z,101348.03
2022-10-04T22:29:27.984Z,101350.72
2022-10-04T22:31:56.130Z,101345.41
2022-10-04T22:34:24.129Z,101338.25
2022-10-04T22:36:53.831Z,101332.88
2022-10-04T22:39:22.802Z,101341.81
2022-10-04T22:41:56.502Z,101343.56
2022-10-04T22:44:28.866Z,101343.66
2022-10-04T22:46:59.977Z,101345.53
2022-10-04T22:49:30.885Z,101344.53
2022-10-04T22:52:02.012Z,101339.34
2022-10-04T22:54:33.664Z,101337.63
2022-10-04T22:57:01.659Z,101343.84
2022-10-04T22:59:36.278Z,101347.22
2022-10-04T23:02:07.918Z,101358.00
2022-10-04T23:04:35.861Z,101352.72
2022-10-04T23:07:05.188Z,101363.44
2022-10-04T23:09:33.158Z,101352.69
2022-10-04T23:12:01.186Z,101352.75
2022-10-04T23:14:29.055Z,101346.47
2022-10-04T23:16:56.918Z,101336.72
2022-10-04T23:19:25.854Z,101341.03
2022-10-04T23:21:53.803Z,101336.38
2022-10-04T23:24:23.946Z,101327.53
2022-10-04T23:26:57.351Z,101325.78
2022-10-04T23:29:27.246Z,101327.47
2022-10-04T23:31:56.876Z,101331.91
2022-10-04T23:34:30.419Z,101337.97
2022-10-04T23:36:58.423Z,101327.44
2022-10-04T23:39:31.199Z,101320.31
2022-10-04T23:41:59.418Z,101312.50
2022-10-04T23:44:38.096Z,101314.28
2022-10-04T23:47:12.546Z,101321.38
2022-10-04T23:49:40.712Z,101327.59
2022-10-04T23:52:14.621Z,101326.78
2022-10-04T23:54:44.136Z,101324.25
2022-10-04T23:57:17.330Z,101326.91
2022-10-04T23:59:45.241Z,101330.66
